Time;durP1;ratioP1;P1;durP2;ratioP2;P2;SDS_P1;SDS_P2;PMS_P1;PMS_P2;Temp;Humidity;BMP_temperature;BMP_pressure;BME280_temperature;BME280_humidity;BME280_pressure;Samples;Min_cycle;Max_cycle;Signal;HPM_P1;HPM_P2
2023/01/20 00:01:23;;;;;;;3.92;3.50;;;;;;;-0.64;100.00;101062.94;6219219;23;20020;-75
2023/01/20 00:03:52;;;;;;;3.78;3.42;;;;;;;-0.68;100.00;101058.41;6218862;23;20013;-75
2023/01/20 00:06:19;;;;;;;3.90;3.50;;;;;;;-0.69;100.00;101058.78;6218545;23;20048;-75
2023/01/20 00:08:52;;;;;;;4.40;3.95;;;;;;;-0.71;100.00;101060.97;6219533;23;20017;-78
2023/01/20 00:11:19;;;;;;;4.15;3.85;;;;;;;-0.73;100.00;101066.56;6219213;23;20443;-75
2023/01/20 00:13:46;;;;;;;4.03;3.65;;;;;;;-0.74;100.00;101065.06;6219448;23;20072;-75
2023/01/20 00:16:13;;;;;;;4.25;3.88;;;;;;;-0.74;100.00;101064.31;6218603;23;20025;-76
2023/01/20 00:18:39;;;;;;;3.92;3.58;;;;;;;-0.77;100.00;101062.41;6219261;23;20016;-76
2023/01/20 00:21:11;;;;;;;4.75;4.35;;;;;;;-0.78;100.00;101061.63;6217789;23;20067;-76
2023/01/20 00:23:39;;;;;;;4.40;4.00;;;;;;;-0.78;100.00;101061.63;6219306;23;20017;-76
2023/01/20 00:26:09;;;;;;;5.03;4.00;;;;;;;-0.77;100.00;101071.00;6218605;23;20021;-75
2023/01/20 00:28:36;;;;;;;5.45;4.35;;;;;;;-0.74;100.00;101066.91;6219555;23;20013;-76
2023/01/20 00:31:23;;;;;;;4.75;4.25;;;;;;;-0.73;100.00;101069.19;6218413;23;20024;-77
2023/01/20 00:33:51;;;;;;;5.45;4.50;;;;;;;-0.71;100.00;101072.19;6218117;23;20069;-76
2023/01/20 00:36:19;;;;;;;4.97;4.47;;;;;;;-0.68;100.00;101081.19;6192176;23;20260;-76
2023/01/20 00:38:46;;;;;;;6.93;5.10;;;;;;;-0.67;100.00;101080.09;6219098;23;20017;-76
2023/01/20 00:41:14;;;;;;;6.35;5.50;;;;;;;-0.68;100.00;101076.72;6218300;23;20479;-76
2023/01/20 00:43:41;;;;;;;7.97;5.75;;;;;;;-0.68;100.00;101078.56;6219390;23;20020;-76
2023/01/20 00:46:09;;;;;;;7.25;5.50;;;;;;;-0.68;100.00;101078.56;6218606;23;20028;-76
2023/01/20 00:48:36;;;;;;;7.53;5.50;;;;;;;-0.67;100.00;101082.69;6218177;23;20020;-77
2023/01/20 00:51:04;;;;;;;8.68;5.78;;;;;;;-0.68;100.00;101081.94;6218420;23;20041;-77
2023/01/20 00:53:31;;;;;;;9.27;6.75;;;;;;;-0.67;100.00;101083.44;6219233;23;20355;-77
2023/01/20 00:55:57;;;;;;;7.05;5.47;;;;;;;-0.65;100.00;101090.19;6218900;23;20021;-77
2023/01/20 00:58:24;;;;;;;7.43;5.97;;;;;;;-0.63;100.00;101095.81;6218867;23;20017;-77
2023/01/20 01:00:52;;;;;;;7.38;6.53;;;;;;;-0.61;100.00;101094.38;6218892;23;20095;-76
2023/01/20 01:03:19;;;;;;;7.00;5.90;;;;;;;-0.59;100.00;101096.63;6218247;23;20411;-76
2023/01/20 01:05:45;;;;;;;9.40;7.20;;;;;;;-0.56;100.00;101098.53;6218890;23;20025;-76
2023/01/20 01:08:12;;;;;;;10.45;7.35;;;;;;;-0.56;100.00;101103.75;6219508;23;20019;-77
2023/01/20 01:10:39;;;;;;;10.82;7.50;;;;;;;-0.55;100.00;101103.41;6193016;23;20419;-77
2023/01/20 01:13:07;;;;;;;10.45;8.10;;;;;;;-0.54;100.00;101110.16;6219645;23;20019;-76
2023/01/20 01:15:34;;;;;;;12.25;8.23;;;;;;;-0.53;100.00;101113.53;6220381;23;20514;-77
2023/01/20 01:18:01;;;;;;;11.40;8.65;;;;;;;-0.54;100.00;101109.41;6219368;23;20017;-76
2023/01/20 01:20:28;;;;;;;12.15;8.20;;;;;;;-0.53;100.00;101108.28;6220291;23;20060;-77
2023/01/20 01:22:54;;;;;;;13.82;8.50;;;;;;;-0.51;100.00;101114.69;6219692;23;20024;-76
2023/01/20 01:25:21;;;;;;;12.75;8.52;;;;;;;-0.49;100.00;101115.06;6219784;23;20705;-76
2023/01/20 01:27:48;;;;;;;13.75;8.77;;;;;;;-0.47;100.00;101110.25;6220173;23;20359;-76
2023/01/20 01:30:14;;;;;;;14.70;9.35;;;;;;;-0.44;100.00;101114.00;6193368;23;20017;-77
2023/01/20 01:32:41;;;;;;;14.57;8.90;;;;;;;-0.41;100.00;101113.31;6219703;23;20359;-76
2023/01/20 01:35:07;;;;;;;15.50;9.23;;;;;;;-0.40;100.00;101115.53;6219223;23;20028;-76
2023/01/20 01:37:34;;;;;;;12.25;9.00;;;;;;;-0.39;100.00;101126.75;6220180;23;20019;-77
2023/01/20 01:40:01;;;;;;;17.42;9.40;;;;;;;-0.39;100.00;101117.06;6219687;23;20423;-77
2023/01/20 01:42:27;;;;;;;15.00;9.80;;;;;;;-0.39;100.00;101119.66;6220101;23;20447;-77
2023/01/20 01:45:09;;;;;;;13.63;9.50;;;;;;;-0.39;100.00;101117.06;6219966;23;20120;-76
2023/01/20 01:47:43;;;;;;;13.93;8.93;;;;;;;-0.38;100.00;101123.78;6219740;23;20021;-76
2023/01/20 01:50:15;;;;;;;14.60;9.00;;;;;;;-0.38;100.00;101118.56;6219365;23;20023;-77
2023/01/20 01:52:45;;;;;;;16.65;10.55;;;;;;;-0.39;100.00;101122.28;6220049;23;20419;-77
2023/01/20 01:55:14;;;;;;;20.40;10.68;;;;;;;-0.39;100.00;101134.59;6219371;23;20474;-77
2023/01/20 01:57:41;;;;;;;19.20;10.55;;;;;;;-0.38;100.00;101133.50;6219567;23;20013;-77
2023/01/20 02:00:08;;;;;;;18.15;11.05;;;;;;;-0.39;100.00;101134.59;6217874;23;20045;-77
2023/01/20 02:02:44;;;;;;;16.10;10.05;;;;;;;-0.38;100.00;101139.47;6218259;23;20485;-77
2023/01/20 02:05:12;;;;;;;19.15;10.43;;;;;;;-0.38;100.00;101136.88;6218641;23;20023;-77
2023/01/20 02:07:41;;;;;;;17.50;9.38;;;;;;;-0.39;100.00;101145.06;6219908;23;20021;-78
2023/01/20 02:10:08;;;;;;;20.13;10.70;;;;;;;-0.41;100.00;101147.31;6218384;23;20940;-77
2023/01/20 02:12:35;;;;;;;16.35;10.50;;;;;;;-0.41;100.00;101152.53;6218938;23;20028;-77
2023/01/20 02:15:03;;;;;;;21.00;11.82;;;;;;;-0.40;100.00;101157.41;6218669;23;20021;-77
2023/01/20 02:17:34;;;;;;;22.27;10.90;;;;;;;-0.40;100.00;101149.53;6193035;23;20017;-77
2023/01/20 02:20:26;;;;;;;18.23;10.45;;;;;;;-0.40;100.00;101146.22;6219273;23;20032;-77
2023/01/20 02:23:20;;;;;;;15.57;10.95;;;;;;;-0.40;100.00;101148.81;6219865;23;20395;-78
2023/01/20 02:25:49;;;;;;;20.60;12.15;;;;;;;-0.40;100.00;101146.22;6219974;23;20017;-78
2023/01/20 02:28:34;;;;;;;21.80;11.77;;;;;;;-0.39;100.00;101137.97;6219513;23;20013;-77
2023/01/20 02:31:22;;;;;;;19.20;11.02;;;;;;;-0.40;100.00;101146.94;6219051;23;20473;-77
2023/01/20 02:34:00;;;;;;;23.92;12.43;;;;;;;-0.39;100.00;101153.66;6219246;23;20498;-77
2023/01/20 02:36:39;;;;;;;20.30;11.57;;;;;;;-0.39;100.00;101153.66;6219924;23;20025;-77
2023/01/20 02:39:26;;;;;;;22.73;13.40;;;;;;;-0.38;100.00;101160.41;6219344;23;20044;-77
2023/01/20 02:42:10;;;;;;;21.98;11.65;;;;;;;-0.38;100.00;101157.78;6219614;23;20016;-77
2023/01/20 02:44:50;;;;;;;22.88;12.18;;;;;;;-0.37;100.00;101155.94;6219369;23;20013;-77
2023/01/20 02:47:27;;;;;;;22.92;12.38;;;;;;;-0.35;100.00;101161.56;6219460;23;20021;-77
2023/01/20 02:50:00;;;;;;;23.50;13.50;;;;;;;-0.35;100.00;101158.94;6208207;23;20025;-77
2023/01/20 02:52:31;;;;;;;23.80;13.73;;;;;;;-0.32;100.00;101147.03;6219828;23;20017;-77
2023/01/20 02:55:03;;;;;;;26.73;13.35;;;;;;;-0.32;100.00;101158.25;6219454;23;20013;-77
2023/01/20 02:57:39;;;;;;;28.05;13.40;;;;;;;-0.29;100.00;101152.31;6219753;22;20021;-77
2023/01/20 03:00:19;;;;;;;25.38;13.50;;;;;;;-0.29;100.00;101157.53;6218642;22;20020;-77
2023/01/20 03:02:49;;;;;;;27.70;13.60;;;;;;;-0.29;100.00;101156.78;6220004;22;20037;-77
2023/01/20 03:05:47;;;;;;;29.80;16.08;;;;;;;-0.28;100.00;101145.97;6219280;22;20443;-77
2023/01/20 03:08:16;;;;;;;26.73;14.02;;;;;;;-0.28;100.00;101147.81;6218391;23;20025;-77
2023/01/20 03:10:46;;;;;;;30.60;16.05;;;;;;;-0.27;100.00;101149.34;6218340;23;20412;-77
2023/01/20 03:13:42;;;;;;;30.85;15.70;;;;;;;-0.26;100.00;101153.47;6217083;23;20072;-77
2023/01/20 03:16:16;;;;;;;28.55;15.73;;;;;;;-0.26;100.00;101153.47;6072761;23;20090;-77
2023/01/20 03:18:43;;;;;;;35.70;15.90;;;;;;;-0.26;100.00;101163.94;6098094;23;20083;-77
2023/01/20 03:21:12;;;;;;;33.97;16.77;;;;;;;-0.26;100.00;101167.28;6097460;23;20047;-76
2023/01/20 03:23:45;;;;;;;33.08;16.35;;;;;;;-0.26;100.00;101172.53;6098930;23;20155;-77
2023/01/20 03:26:13;;;;;;;33.25;16.90;;;;;;;-0.26;100.00;101171.78;6073733;23;20460;-77
2023/01/20 03:28:43;;;;;;;37.92;17.38;;;;;;;-0.26;100.00;101169.16;6097909;23;20023;-76
2023/01/20 03:31:16;;;;;;;34.08;16.73;;;;;;;-0.26;100.00;101169.91;6096909;23;20115;-77
2023/01/20 03:33:45;;;;;;;39.47;17.20;;;;;;;-0.23;100.00;101177.06;6097396;23;20019;-76
2023/01/20 03:36:13;;;;;;;34.45;17.23;;;;;;;-0.24;100.00;101174.78;6097019;23;20488;-77
2023/01/20 03:38:40;;;;;;;37.25;17.73;;;;;;;-0.23;100.00;101171.06;6098019;23;20115;-77
2023/01/20 03:41:16;;;;;;;40.75;17.85;;;;;;;-0.22;100.00;101167.34;6096938;23;20166;-76
2023/01/20 03:43:56;;;;;;;32.08;16.15;;;;;;;-0.22;100.00;101172.56;6097591;23;20058;-77
2023/01/20 03:46:41;;;;;;;37.10;17.80;;;;;;;-0.21;100.00;101172.22;6097544;23;20019;-77
2023/01/20 03:49:18;;;;;;;39.97;16.35;;;;;;;-0.22;100.00;101175.94;6096716;23;20479;-77
2023/01/20 03:51:55;;;;;;;38.20;17.30;;;;;;;-0.22;100.00;101177.81;6097686;23;20468;-77
2023/01/20 03:54:27;;;;;;;42.22;17.75;;;;;;;-0.22;100.00;101172.56;6219070;23;20079;-77
2023/01/20 03:57:12;;;;;;;32.22;15.60;;;;;;;-0.21;100.00;101177.47;6218855;23;20017;-76
2023/01/20 03:59:42;;;;;;;32.95;16.17;;;;;;;-0.22;100.00;101175.94;6219310;23;20028;-77
2023/01/20 04:02:10;;;;;;;33.17;16.33;;;;;;;-0.21;100.00;101174.84;6218420;23;20014;-77
2023/01/20 04:04:39;;;;;;;39.85;16.83;;;;;;;-0.21;100.00;101179.31;6219210;23;20506;-77
2023/01/20 04:07:10;;;;;;;36.55;16.58;;;;;;;-0.18;100.00;101183.84;6218488;23;20013;-77
2023/01/20 04:09:41;;;;;;;37.10;17.67;;;;;;;-0.18;100.00;101184.59;6219207;23;20022;-77
2023/01/20 04:12:08;;;;;;;43.13;18.17;;;;;;;-0.17;100.00;101188.72;6217941;23;20369;-77
2023/01/20 04:14:35;;;;;;;36.95;17.40;;;;;;;-0.18;100.00;101189.09;6219454;23;20013;-77
2023/01/20 04:17:03;;;;;;;38.17;16.92;;;;;;;-0.18;100.00;101195.06;6218606;23;20432;-77
2023/01/20 04:19:30;;;;;;;35.20;15.40;;;;;;;-0.20;100.00;101192.06;6219068;23;20045;-77
2023/01/20 04:22:06;;;;;;;37.10;15.75;;;;;;;-0.20;100.00;101207.00;6219098;23;20486;-76
2023/01/20 04:24:56;;;;;;;41.95;16.90;;;;;;;-0.23;100.00;101199.84;6219436;23;20013;-76
2023/01/20 04:27:23;;;;;;;35.53;15.73;;;;;;;-0.21;100.00;101203.63;6218104;23;20434;-75
2023/01/20 04:29:49;;;;;;;41.67;15.60;;;;;;;-0.20;100.00;101201.75;6219096;23;20076;-75
2023/01/20 04:32:16;;;;;;;32.90;17.00;;;;;;;-0.22;100.00;101204.72;6218827;23;20024;-75
2023/01/20 04:34:42;;;;;;;48.58;16.88;;;;;;;-0.21;100.00;101195.03;6218985;23;20017;-75
2023/01/20 04:37:09;;;;;;;35.70;16.10;;;;;;;-0.23;100.00;101197.22;6218261;23;20024;-75
2023/01/20 04:39:35;;;;;;;38.50;16.40;;;;;;;-0.26;100.00;101192.72;6218989;23;20437;-75
2023/01/20 04:42:02;;;;;;;33.58;15.57;;;;;;;-0.25;100.00;101194.22;6217340;23;20017;-75
2023/01/20 04:44:29;;;;;;;33.75;16.55;;;;;;;-0.29;100.00;101199.41;6219089;23;20041;-75
2023/01/20 04:46:59;;;;;;;42.03;18.05;;;;;;;-0.28;100.00;101197.53;6218752;23;20451;-75
2023/01/20 04:49:25;;;;;;;37.72;15.68;;;;;;;-0.26;100.00;101187.47;6218423;23;20017;-75
2023/01/20 04:51:52;;;;;;;36.58;15.18;;;;;;;-0.27;100.00;101199.06;6218587;23;20013;-75
2023/01/20 04:54:19;;;;;;;37.97;16.50;;;;;;;-0.27;100.00;101197.19;6217519;23;20017;-75
2023/01/20 04:56:47;;;;;;;40.00;17.13;;;;;;;-0.25;100.00;101200.22;6218860;23;20068;-76
2023/01/20 04:59:13;;;;;;;37.58;16.00;;;;;;;-0.26;100.00;101205.78;6218534;23;20100;-75
2023/01/20 05:01:40;;;;;;;36.10;16.98;;;;;;;-0.25;100.00;101208.06;6219053;23;20041;-75
2023/01/20 05:04:06;;;;;;;36.88;15.93;;;;;;;-0.26;100.00;101208.41;6218469;23;20044;-75
2023/01/20 05:06:34;;;;;;;32.20;15.35;;;;;;;-0.26;100.00;101208.41;6219057;23;20013;-75
2023/01/20 05:09:00;;;;;;;40.58;17.40;;;;;;;-0.26;100.00;101205.78;6217903;23;20017;-75
2023/01/20 05:11:27;;;;;;;40.42;16.38;;;;;;;-0.25;100.00;101210.66;6219126;23;20514;-75
2023/01/20 05:13:53;;;;;;;33.20;16.13;;;;;;;-0.23;100.00;101210.31;6191785;23;20021;-75
2023/01/20 05:16:23;;;;;;;40.17;15.82;;;;;;;-0.24;100.00;101200.97;6218406;23;20013;-75
2023/01/20 05:18:50;;;;;;;39.25;16.15;;;;;;;-0.26;100.00;101211.03;6218569;23;20339;-75
2023/01/20 05:21:16;;;;;;;35.45;17.02;;;;;;;-0.25;100.00;101207.31;6218292;23;20024;-76
2023/01/20 05:23:43;;;;;;;37.13;16.27;;;;;;;-0.25;100.00;101205.44;6217902;23;20021;-75
2023/01/20 05:26:10;;;;;;;37.60;16.55;;;;;;;-0.25;100.00;101209.91;6191476;23;20023;-75
2023/01/20 05:28:37;;;;;;;39.72;16.80;;;;;;;-0.25;100.00;101207.31;6218842;23;20404;-75
2023/01/20 05:31:03;;;;;;;43.17;18.25;;;;;;;-0.24;100.00;101206.19;6217662;23;20017;-76
2023/01/20 05:33:30;;;;;;;38.90;15.85;;;;;;;-0.22;100.00;101209.22;6218406;23;20017;-75
2023/01/20 05:35:56;;;;;;;42.80;17.05;;;;;;;-0.23;100.00;101212.94;6218299;23;20023;-75
2023/01/20 05:38:23;;;;;;;41.22;17.83;;;;;;;-0.23;100.00;101207.69;6217809;23;20418;-75
2023/01/20 05:40:57;;;;;;;46.00;18.00;;;;;;;-0.25;100.00;101210.66;6218108;23;20041;-75
2023/01/20 05:43:24;;;;;;;38.70;17.50;;;;;;;-0.22;100.00;101214.44;6218273;23;20013;-77
2023/01/20 05:45:50;;;;;;;39.17;17.63;;;;;;;-0.19;100.00;101211.13;6218355;23;20040;-76
2023/01/20 05:48:16;;;;;;;41.55;18.77;;;;;;;-0.19;100.00;101216.34;6191173;22;20032;-76
2023/01/20 05:50:43;;;;;;;40.15;16.95;;;;;;;-0.20;100.00;101223.44;6218546;23;20017;-76
2023/01/20 05:53:09;;;;;;;39.25;17.23;;;;;;;-0.19;100.00;101211.13;6217138;23;20100;-76
2023/01/20 05:55:36;;;;;;;43.65;18.27;;;;;;;-0.19;100.00;101211.13;6219819;23;20017;-76
2023/01/20 05:58:03;;;;;;;44.03;18.48;;;;;;;-0.20;100.00;101220.84;6219144;23;20076;-76
2023/01/20 06:00:29;;;;;;;48.53;20.17;;;;;;;-0.16;100.00;101233.97;6219882;23;20013;-76
2023/01/20 06:02:57;;;;;;;47.22;18.98;;;;;;;-0.15;100.00;101230.25;6219555;23;20021;-76
2023/01/20 06:05:27;;;;;;;41.88;18.98;;;;;;;-0.17;100.00;101222.75;6220010;23;20035;-76
2023/01/20 06:07:54;;;;;;;46.08;21.02;;;;;;;-0.16;100.00;101228.75;6192330;23;20021;-76
2023/01/20 06:10:26;;;;;;;42.45;18.63;;;;;;;-0.15;100.00;101227.63;6192268;23;20505;-77
2023/01/20 06:12:54;;;;;;;46.80;20.17;;;;;;;-0.16;100.00;101233.97;6219511;23;20090;-76
2023/01/20 06:15:25;;;;;;;51.80;20.65;;;;;;;-0.16;100.00;101234.72;6167760;23;20505;-76
2023/01/20 06:17:54;;;;;;;48.22;18.67;;;;;;;-0.19;100.00;101237.28;6219520;23;20021;-75
2023/01/20 06:20:21;;;;;;;47.15;19.52;;;;;;;-0.21;100.00;101237.66;6167313;23;20021;-75
2023/01/20 06:22:48;;;;;;;46.47;20.58;;;;;;;-0.21;100.00;101240.25;6219132;23;20458;-76
2023/01/20 06:25:14;;;;;;;44.15;17.73;;;;;;;-0.20;100.00;101243.63;6219358;23;20068;-76
2023/01/20 06:27:41;;;;;;;52.90;21.13;;;;;;;-0.21;100.00;101247.34;6219523;23;20025;-76
2023/01/20 06:30:10;;;;;;;44.33;19.70;;;;;;;-0.22;100.00;101248.47;6218853;23;20024;-75
2023/01/20 06:32:37;;;;;;;49.35;20.17;;;;;;;-0.24;100.00;101250.69;6219832;23;20017;-76
2023/01/20 06:35:03;;;;;;;46.72;20.00;;;;;;;-0.23;100.00;101247.72;6219152;23;20013;-76
2023/01/20 06:37:30;;;;;;;42.85;18.67;;;;;;;-0.26;100.00;101251.03;6219352;23;20045;-76
2023/01/20 06:39:56;;;;;;;48.80;19.33;;;;;;;-0.27;100.00;101243.53;6219078;23;20051;-75
2023/01/20 06:42:23;;;;;;;40.85;18.50;;;;;;;-0.29;100.00;101243.88;6219460;23;20439;-76
2023/01/20 06:44:49;;;;;;;47.25;18.67;;;;;;;-0.31;100.00;101240.09;6219172;23;20017;-76
2023/01/20 06:47:16;;;;;;;47.40;19.25;;;;;;;-0.34;100.00;101236.34;6219077;23;20029;-75
2023/01/20 06:49:42;;;;;;;41.78;18.40;;;;;;;-0.32;100.00;101238.59;6219080;22;20072;-75
2023/01/20 06:52:09;;;;;;;44.40;17.98;;;;;;;-0.35;100.00;101238.19;6218386;23;20024;-75
2023/01/20 06:54:35;;;;;;;42.47;17.58;;;;;;;-0.35;100.00;101235.56;6219796;23;20023;-75
2023/01/20 06:57:02;;;;;;;40.00;17.02;;;;;;;-0.36;100.00;101233.31;6218632;23;20017;-75
2023/01/20 06:59:28;;;;;;;35.30;16.42;;;;;;;-0.37;100.00;101231.81;6219858;23;20013;-75
2023/01/20 07:01:54;;;;;;;39.13;16.40;;;;;;;-0.39;100.00;101232.16;6219026;23;20048;-75
2023/01/20 07:04:21;;;;;;;29.67;14.48;;;;;;;-0.40;100.00;101228.03;6218675;23;20321;-75
2023/01/20 07:06:48;;;;;;;32.88;15.10;;;;;;;-0.41;100.00;101234.41;6218937;23;20044;-75
2023/01/20 07:09:14;;;;;;;39.72;17.35;;;;;;;-0.41;100.00;101238.88;6219379;23;20099;-75
2023/01/20 07:11:41;;;;;;;35.55;16.63;;;;;;;-0.43;100.00;101234.00;6220080;23;20399;-75
2023/01/20 07:14:09;;;;;;;35.63;17.88;;;;;;;-0.42;100.00;101243.34;6192316;23;20617;-76
2023/01/20 07:16:35;;;;;;;39.75;17.65;;;;;;;-0.40;100.00;101240.38;6219967;23;20049;-75
2023/01/20 07:19:02;;;;;;;31.80;15.18;;;;;;;-0.40;100.00;101240.38;6219535;23;20486;-76
2023/01/20 07:21:29;;;;;;;36.38;16.20;;;;;;;-0.41;100.00;101244.84;6219038;23;20102;-76
2023/01/20 07:24:00;;;;;;;38.97;16.48;;;;;;;-0.40;100.00;101250.84;6217325;23;20072;-75
2023/01/20 07:26:26;;;;;;;40.35;16.10;;;;;;;-0.41;100.00;101260.56;6217915;23;20489;-76
2023/01/20 07:28:53;;;;;;;35.33;17.75;;;;;;;-0.40;100.00;101263.94;6217502;23;20454;-76
2023/01/20 07:31:25;;;;;;;42.00;16.02;;;;;;;-0.39;100.00;101260.16;6217944;23;20036;-76
2023/01/20 07:33:54;;;;;;;38.15;17.67;;;;;;;-0.38;100.00;101264.31;6218974;23;20473;-76
2023/01/20 07:36:20;;;;;;;39.80;19.17;;;;;;;-0.37;100.00;101265.81;6219853;23;20474;-77
2023/01/20 07:38:48;;;;;;;42.95;19.35;;;;;;;-0.38;100.00;101267.66;6219212;23;20041;-76
2023/01/20 07:41:18;;;;;;;45.38;17.17;;;;;;;-0.37;100.00;101266.56;6219993;23;20023;-77
2023/01/20 07:43:51;;;;;;;38.25;17.13;;;;;;;-0.36;100.00;101267.31;6194219;23;20400;-77
2023/01/20 07:46:19;;;;;;;34.88;17.02;;;;;;;-0.37;100.00;101271.81;6220341;23;20367;-79
2023/01/20 07:48:45;;;;;;;46.45;18.65;;;;;;;-0.38;100.00;101278.13;6193692;23;20024;-79
2023/01/20 07:51:14;;;;;;;35.80;17.00;;;;;;;-0.36;100.00;101270.69;6219421;23;20431;-78
2023/01/20 07:53:45;;;;;;;40.85;16.80;;;;;;;-0.35;100.00;101281.91;6220022;22;20021;-80
2023/01/20 07:56:32;;;;;;;44.38;19.00;;;;;;;-0.35;100.00;101277.44;6219845;22;20021;-80
2023/01/20 07:58:58;;;;;;;38.55;17.65;;;;;;;-0.36;100.00;101280.41;6219855;22;20088;-79
2023/01/20 08:01:28;;;;;;;35.53;15.45;;;;;;;-0.34;100.00;101286.78;6219935;23;20020;-78
2023/01/20 08:03:56;;;;;;;37.13;16.42;;;;;;;-0.32;100.00;101291.69;6218929;22;20018;-79
2023/01/20 08:06:25;;;;;;;34.05;15.43;;;;;;;-0.30;100.00;101291.31;6220031;22;20022;-78
2023/01/20 08:08:52;;;;;;;39.40;16.73;;;;;;;-0.30;100.00;101294.69;6219457;22;20013;-79
2023/01/20 08:11:21;;;;;;;32.90;14.85;;;;;;;-0.28;100.00;101286.50;6219635;22;20016;-79
2023/01/20 08:13:48;;;;;;;40.50;17.00;;;;;;;-0.27;100.00;101288.00;6219971;22;20017;-78
2023/01/20 08:16:16;;;;;;;34.75;15.40;;;;;;;-0.25;100.00;101291.03;6219574;23;20430;-79
2023/01/20 08:18:43;;;;;;;37.78;16.88;;;;;;;-0.24;100.00;101290.69;6219333;22;20040;-78
2023/01/20 08:21:31;;;;;;;38.40;17.13;;;;;;;-0.22;100.00;101291.09;6219592;22;20096;-79
2023/01/20 08:24:00;;;;;;;39.13;16.83;;;;;;;-0.20;100.00;101296.72;6219318;22;20013;-79
2023/01/20 08:26:28;;;;;;;35.63;17.65;;;;;;;-0.19;100.00;101303.47;6220061;22;20053;-79
2023/01/20 08:29:00;;;;;;;36.85;16.92;;;;;;;-0.18;100.00;101302.38;6219319;23;20406;-77
2023/01/20 08:31:27;;;;;;;35.83;16.85;;;;;;;-0.17;100.00;101303.88;6220446;22;20418;-78
2023/01/20 08:33:55;;;;;;;37.65;16.63;;;;;;;-0.16;100.00;101305.38;6218613;22;20096;-78
2023/01/20 08:36:24;;;;;;;33.28;17.27;;;;;;;-0.16;100.00;101310.63;6219707;22;20021;-78
2023/01/20 08:38:51;;;;;;;35.28;16.33;;;;;;;-0.15;100.00;101311.38;6219241;22;20024;-78
2023/01/20 08:41:22;;;;;;;35.42;17.00;;;;;;;-0.15;100.00;101314.00;6220020;23;20017;-77
2023/01/20 08:43:49;;;;;;;39.33;17.10;;;;;;;-0.14;100.00;101312.88;6219612;22;20035;-77
2023/01/20 08:46:17;;;;;;;41.10;16.70;;;;;;;-0.11;100.00;101310.31;6217962;23;20260;-77
2023/01/20 08:48:45;;;;;;;39.47;16.98;;;;;;;-0.09;100.00;101318.56;6219349;22;20017;-78
2023/01/20 08:51:17;;;;;;;40.40;17.33;;;;;;;-0.08;100.00;101321.94;6192752;23;20024;-77
2023/01/20 08:53:44;;;;;;;38.95;19.02;;;;;;;-0.08;100.00;101329.81;6218716;23;20017;-77
2023/01/20 08:56:11;;;;;;;36.90;16.67;;;;;;;-0.08;100.00;101329.81;6219231;23;20161;-77
2023/01/20 08:58:39;;;;;;;40.72;17.05;;;;;;;-0.08;100.00;101335.78;6219581;23;20080;-77
2023/01/20 09:01:11;;;;;;;34.85;16.60;;;;;;;-0.07;100.00;101341.78;6218792;23;20084;-76
2023/01/20 09:03:38;;;;;;;33.13;15.43;;;;;;;-0.04;100.00;101338.47;6219289;23;20014;-77
2023/01/20 09:06:06;;;;;;;36.83;17.08;;;;;;;-0.04;100.00;101348.94;6192311;23;20029;-77
2023/01/20 09:08:34;;;;;;;41.67;17.50;;;;;;;-0.04;100.00;101341.09;6219473;23;20018;-77
2023/01/20 09:11:03;;;;;;;34.67;15.93;;;;;;;-0.01;100.00;101345.63;6219183;23;20017;-76
2023/01/20 09:13:29;;;;;;;33.63;15.68;;;;;;;0.00;100.00;101344.50;6218965;23;20021;-77
2023/01/20 09:15:56;;;;;;;35.55;15.57;;;;;;;0.00;100.00;101345.25;6218876;23;20558;-77
2023/01/20 09:18:22;;;;;;;30.05;15.20;;;;;;;0.00;100.00;101349.75;6219787;23;20013;-77
2023/01/20 09:20:49;;;;;;;33.30;15.32;;;;;;;0.00;100.00;101353.09;6219068;23;20021;-77
2023/01/20 09:23:16;;;;;;;26.52;13.32;;;;;;;-0.01;100.00;101362.06;6219541;23;20387;-76
2023/01/20 09:25:42;;;;;;;36.65;15.77;;;;;;;0.01;100.00;101356.47;6219507;23;20106;-77
2023/01/20 09:28:09;;;;;;;30.08;15.30;;;;;;;0.01;100.00;101359.09;6219483;23;20013;-77
2023/01/20 09:30:35;;;;;;;29.50;13.75;;;;;;;0.02;100.00;101357.97;6220531;23;20020;-78
2023/01/20 09:33:02;;;;;;;27.67;14.75;;;;;;;0.04;100.00;101368.84;6220333;23;20418;-76
2023/01/20 09:35:28;;;;;;;27.80;14.85;;;;;;;0.07;100.00;101370.00;6220778;23;20017;-77
2023/01/20 09:43:53;;;;;;;27.80;14.50;;;;;;;0.06;100.00;101374.50;6220888;23;20071;-78
2023/01/20 09:46:32;;;;;;;30.25;14.43;;;;;;;0.06;100.00;101379.72;6220454;23;20021;-77
2023/01/20 09:55:27;;;;;;;26.02;14.18;;;;;;;0.13;100.00;101397.41;6220736;23;20029;-79
2023/01/20 09:58:04;;;;;;;26.73;12.65;;;;;;;0.15;100.00;101403.06;6220361;23;20017;-79
2023/01/20 10:00:34;;;;;;;24.45;13.18;;;;;;;0.17;100.00;101395.59;6220265;22;20418;-79
2023/01/20 10:03:54;;;;;;;27.17;13.57;;;;;;;0.16;100.00;101407.19;6220080;22;20013;-79
2023/01/20 10:06:39;;;;;;;23.45;13.02;;;;;;;0.15;100.00;101403.81;6185932;23;20021;-79
2023/01/20 10:09:40;;;;;;;26.20;13.05;;;;;;;0.14;100.00;101404.16;6219965;22;20048;-81
2023/01/20 10:12:32;;;;;;;28.45;14.07;;;;;;;0.14;100.00;101415.38;6211036;23;20819;-80
2023/01/20 10:15:05;;;;;;;23.80;12.40;;;;;;;0.14;100.00;101419.88;6218455;23;20021;-79
2023/01/20 10:17:47;;;;;;;28.08;13.95;;;;;;;0.13;100.00;101424.34;6219077;23;20024;-80
2023/01/20 10:20:26;;;;;;;;;;;;;;;0.16;100.00;101421.03;6219254;23;20021;-80
2023/01/20 10:23:09;;;;;;;27.40;12.57;;;;;;;0.15;100.00;101419.50;6220846;22;19927;-80
2023/01/20 10:26:05;;;;;;;24.33;12.73;;;;;;;0.14;100.00;101409.41;6221274;22;20443;-82
2023/01/20 10:28:53;;;;;;;22.85;12.48;;;;;;;0.12;100.00;101414.97;6218433;22;20482;-82
2023/01/20 10:31:25;;;;;;;28.67;13.57;;;;;;;0.13;100.00;101413.88;6219243;23;20459;-82
2023/01/20 10:33:57;;;;;;;27.95;13.55;;;;;;;0.17;100.00;101421.78;6220187;22;20017;-82
2023/01/20 10:36:28;;;;;;;24.65;12.68;;;;;;;0.18;100.00;101420.69;6221267;22;20387;-82
2023/01/20 10:38:55;;;;;;;24.40;12.57;;;;;;;0.21;100.00;101420.72;6220161;22;20017;-83
2023/01/20 10:41:33;;;;;;;28.65;13.23;;;;;;;0.22;100.00;101429.34;6219621;23;20414;-83
2023/01/20 10:44:13;;;;;;;22.73;12.63;;;;;;;0.23;100.00;101429.00;6220350;22;20024;-88
2023/01/20 10:47:07;;;;;;;27.40;12.57;;;;;;;0.25;100.00;101426.03;6223728;22;20747;-89
2023/01/20 10:49:58;;;;;;;22.85;12.63;;;;;;;0.29;100.00;101427.59;6221611;22;20032;-89
2023/01/20 10:52:50;;;;;;;22.45;11.40;;;;;;;0.28;100.00;101418.22;6196157;23;20006;-89
2023/01/20 10:55:46;;;;;;;26.25;13.85;;;;;;;0.27;100.00;101421.19;6195296;23;20109;-89
2023/01/20 10:58:20;;;;;;;35.08;19.05;;;;;;;0.29;100.00;101424.22;6195707;23;20013;-89
2023/01/20 11:00:48;;;;;;;35.03;16.50;;;;;;;0.31;100.00;101422.00;6179250;23;20013;-91
2023/01/20 11:03:18;;;;;;;25.55;13.52;;;;;;;0.32;100.00;101428.75;6198382;23;20108;-84
2023/01/20 11:05:47;;;;;;;31.38;13.93;;;;;;;0.30;100.00;101423.88;6222427;23;20100;-84
2023/01/20 11:08:21;;;;;;;25.17;13.02;;;;;;;0.33;100.00;101422.41;6197233;23;20171;-83
2023/01/20 11:10:52;;;;;;;22.63;12.50;;;;;;;0.30;100.00;101412.63;6224152;23;20023;-84
2023/01/20 11:13:19;;;;;;;26.95;15.35;;;;;;;0.27;100.00;101419.34;6222743;23;20025;-84
2023/01/20 11:15:56;;;;;;;20.73;12.38;;;;;;;0.25;100.00;101416.31;6221293;23;20017;-85
2023/01/20 11:18:28;;;;;;;23.65;12.27;;;;;;;0.24;100.00;101409.56;6220251;23;20359;-83
2023/01/20 11:21:07;;;;;;;22.48;13.75;;;;;;;0.23;100.00;101413.28;6220112;23;20024;-81
2023/01/20 11:23:38;;;;;;;23.25;11.40;;;;;;;0.23;100.00;101408.03;6220677;23;20153;-89
2023/01/20 11:26:40;;;;;;;39.60;19.67;;;;;;;0.23;100.00;101397.56;6221483;23;20455;-82
2023/01/20 11:29:09;;;;;;;21.00;11.27;;;;;;;0.24;100.00;101400.94;6077739;23;20023;-82
2023/01/20 11:31:40;;;;;;;20.13;11.35;;;;;;;0.24;100.00;101396.47;6104609;23;20023;-86
2023/01/20 11:34:33;;;;;;;19.05;10.45;;;;;;;0.32;100.00;101392.09;6073713;23;20015;-89